createdAt,value
2022-12-31T00:02:12.551Z,100.00
2022-12-31T00:04:39.005Z,100.00
2022-12-31T00:07:05.395Z,100.00
2022-12-31T00:09:31.788Z,100.00
2022-12-31T00:11:58.169Z,100.00
2022-12-31T00:14:24.570Z,100.00
2022-12-31T00:16:51.003Z,100.00
2022-12-31T00:19:17.382Z,100.00
2022-12-31T00:21:43.786Z,100.00
2022-12-31T00:24:11.008Z,100.00
2022-12-31T00:26:37.418Z,100.00
2022-12-31T00:29:04.548Z,100.00
2022-12-31T00:31:33.222Z,100.00
2022-12-31T00:34:00.038Z,100.00
2022-12-31T00:36:38.505Z,100.00
2022-12-31T00:39:06.310Z,100.00
2022-12-31T00:41:33.041Z,100.00
2022-12-31T00:44:00.042Z,100.00
2022-12-31T00:46:26.603Z,100.00
2022-12-31T00:48:53.435Z,100.00
2022-12-31T00:51:22.323Z,100.00
2022-12-31T00:53:48.759Z,100.00
2022-12-31T00:56:19.892Z,100.00
2022-12-31T00:58:46.595Z,100.00
2022-12-31T01:01:16.897Z,100.00
2022-12-31T01:03:43.797Z,100.00
2022-12-31T01:06:10.735Z,100.00
2022-12-31T01:08:37.553Z,100.00
2022-12-31T01:11:19.665Z,100.00
2022-12-31T01:13:48.863Z,100.00
2022-12-31T01:16:16.211Z,100.00
2022-12-31T01:18:42.723Z,100.00
2022-12-31T01:21:10.450Z,100.00
2022-12-31T01:23:36.827Z,100.00
2022-12-31T01:26:05.284Z,100.00
2022-12-31T01:28:32.265Z,100.00
2022-12-31T01:30:58.828Z,100.00
2022-12-31T01:33:25.276Z,100.00
2022-12-31T01:35:51.835Z,100.00
2022-12-31T01:38:18.203Z,100.00
2022-12-31T01:40:44.625Z,100.00
2022-12-31T01:43:16.195Z,100.00
2022-12-31T01:45:44.445Z,100.00
2022-12-31T01:48:12.769Z,100.00
2022-12-31T01:50:40.790Z,100.00
2022-12-31T01:53:08.821Z,100.00
2022-12-31T01:55:51.135Z,100.00
2022-12-31T01:58:18.637Z,100.00
2022-12-31T02:00:45.263Z,100.00
2022-12-31T02:03:12.217Z,100.00
2022-12-31T02:05:48.718Z,100.00
2022-12-31T02:08:15.127Z,100.00
2022-12-31T02:10:41.502Z,100.00
2022-12-31T02:13:08.064Z,100.00
2022-12-31T02:15:43.143Z,100.00
2022-12-31T02:18:24.581Z,100.00
2022-12-31T02:21:29.681Z,100.00
2022-12-31T02:24:07.754Z,100.00
2022-12-31T02:26:51.760Z,100.00
2022-12-31T02:29:47.358Z,100.00
2022-12-31T02:32:17.934Z,100.00
2022-12-31T02:34:50.425Z,100.00
2022-12-31T02:37:19.193Z,100.00
2022-12-31T02:39:45.928Z,100.00
2022-12-31T02:42:12.321Z,100.00
2022-12-31T02:44:40.285Z,100.00
2022-12-31T02:47:09.709Z,100.00
2022-12-31T02:49:59.205Z,100.00
2022-12-31T02:52:44.454Z,100.00
2022-12-31T02:55:22.365Z,100.00
2022-12-31T02:57:55.802Z,100.00
2022-12-31T03:00:40.908Z,100.00
2022-12-31T03:03:08.336Z,100.00
2022-12-31T03:05:40.495Z,100.00
2022-12-31T03:08:06.971Z,100.00
2022-12-31T03:10:34.550Z,100.00
2022-12-31T03:13:01.027Z,100.00
2022-12-31T03:15:29.971Z,100.00
2022-12-31T03:18:05.702Z,100.00
2022-12-31T03:20:52.588Z,100.00
2022-12-31T03:23:25.656Z,100.00
2022-12-31T03:25:53.269Z,100.00
2022-12-31T03:28:22.149Z,100.00
2022-12-31T03:31:00.560Z,100.00
2022-12-31T03:33:32.026Z,100.00
2022-12-31T03:35:58.481Z,100.00
2022-12-31T03:38:24.942Z,100.00
2022-12-31T03:40:52.775Z,100.00
2022-12-31T03:43:20.100Z,100.00
2022-12-31T03:45:51.659Z,100.00
2022-12-31T03:48:18.772Z,100.00
2022-12-31T03:50:45.250Z,100.00
2022-12-31T03:53:11.686Z,100.00
2022-12-31T03:55:38.087Z,100.00
2022-12-31T03:58:04.992Z,100.00
2022-12-31T04:00:31.453Z,100.00
2022-12-31T04:02:57.901Z,100.00
2022-12-31T04:05:24.376Z,100.00
2022-12-31T04:07:52.120Z,100.00
2022-12-31T04:10:19.424Z,100.00
2022-12-31T04:12:46.019Z,100.00
2022-12-31T04:15:18.194Z,100.00
2022-12-31T04:17:44.565Z,100.00
2022-12-31T04:20:11.102Z,100.00
2022-12-31T04:22:37.505Z,100.00
2022-12-31T04:25:05.653Z,100.00
2022-12-31T04:27:32.031Z,100.00
2022-12-31T04:29:58.393Z,100.00
2022-12-31T04:32:24.767Z,100.00
2022-12-31T04:34:51.132Z,100.00
2022-12-31T04:37:17.492Z,100.00
2022-12-31T04:39:43.871Z,100.00
2022-12-31T04:42:10.259Z,100.00
2022-12-31T04:44:36.882Z,100.00
2022-12-31T04:47:03.269Z,100.00
2022-12-31T04:49:29.679Z,100.00
2022-12-31T04:51:56.073Z,100.00
2022-12-31T04:54:22.573Z,100.00
2022-12-31T04:56:48.965Z,100.00
2022-12-31T04:59:15.330Z,100.00
2022-12-31T05:01:41.889Z,100.00
2022-12-31T05:04:08.325Z,100.00
2022-12-31T05:06:34.794Z,100.00
2022-12-31T05:09:01.159Z,100.00
2022-12-31T05:11:27.805Z,100.00
2022-12-31T05:13:54.172Z,100.00
2022-12-31T05:16:20.576Z,100.00
2022-12-31T05:18:46.987Z,100.00
2022-12-31T05:21:19.985Z,100.00
2022-12-31T05:23:46.453Z,100.00
2022-12-31T05:26:12.882Z,100.00
2022-12-31T05:28:39.260Z,100.00
2022-12-31T05:31:05.739Z,100.00
2022-12-31T05:33:32.140Z,100.00
2022-12-31T05:35:58.675Z,100.00
2022-12-31T05:38:25.670Z,100.00
2022-12-31T05:41:03.637Z,100.00
2022-12-31T05:43:30.277Z,100.00
2022-12-31T05:45:56.906Z,100.00
2022-12-31T05:48:23.419Z,100.00
2022-12-31T05:50:49.948Z,100.00
2022-12-31T05:53:16.314Z,100.00
2022-12-31T05:55:42.690Z,100.00
2022-12-31T05:58:09.065Z,100.00
2022-12-31T06:00:35.444Z,100.00
2022-12-31T06:03:02.005Z,100.00
2022-12-31T06:05:28.493Z,100.00
2022-12-31T06:07:54.853Z,100.00
2022-12-31T06:10:21.205Z,100.00
2022-12-31T06:12:47.568Z,100.00
2022-12-31T06:15:13.957Z,100.00
2022-12-31T06:17:40.333Z,100.00
2022-12-31T06:20:12.501Z,100.00
2022-12-31T06:22:39.616Z,100.00
2022-12-31T06:25:06.500Z,100.00
2022-12-31T06:27:32.859Z,100.00
2022-12-31T06:29:59.226Z,100.00
2022-12-31T06:32:25.601Z,100.00
2022-12-31T06:34:52.381Z,100.00
2022-12-31T06:37:18.745Z,100.00
2022-12-31T06:39:45.121Z,100.00
2022-12-31T06:42:11.481Z,100.00
2022-12-31T06:44:37.849Z,100.00
2022-12-31T06:47:04.232Z,100.00
2022-12-31T06:49:30.594Z,100.00
2022-12-31T06:51:56.959Z,100.00
2022-12-31T06:54:23.333Z,100.00
2022-12-31T06:56:49.921Z,100.00
2022-12-31T06:59:27.846Z,100.00
2022-12-31T07:02:13.419Z,100.00
2022-12-31T07:04:47.048Z,100.00
2022-12-31T07:07:47.322Z,100.00
2022-12-31T07:10:38.457Z,100.00
2022-12-31T07:13:13.819Z,100.00
2022-12-31T07:15:52.023Z,100.00
2022-12-31T07:18:23.313Z,100.00
2022-12-31T07:20:49.928Z,100.00
2022-12-31T07:23:16.504Z,100.00
2022-12-31T07:25:53.742Z,100.00
2022-12-31T07:28:37.055Z,100.00
2022-12-31T07:31:13.512Z,100.00
2022-12-31T07:34:00.322Z,100.00
2022-12-31T07:36:41.783Z,100.00
2022-12-31T07:39:15.453Z,100.00
2022-12-31T07:41:48.068Z,100.00
2022-12-31T07:44:29.818Z,100.00
2022-12-31T07:46:57.784Z,100.00
2022-12-31T07:49:25.645Z,100.00
2022-12-31T07:51:52.394Z,100.00
2022-12-31T07:54:18.870Z,100.00
2022-12-31T07:56:45.977Z,100.00
2022-12-31T07:59:23.948Z,100.00
2022-12-31T08:02:18.619Z,100.00
2022-12-31T08:05:09.863Z,100.00
2022-12-31T08:07:55.401Z,100.00
2022-12-31T08:10:27.156Z,100.00
2022-12-31T08:13:01.025Z,100.00
2022-12-31T08:15:30.527Z,100.00
2022-12-31T08:17:57.512Z,100.00
2022-12-31T08:20:23.877Z,100.00
2022-12-31T08:23:11.580Z,100.00
2022-12-31T08:26:02.900Z,100.00
2022-12-31T08:28:38.983Z,100.00
2022-12-31T08:31:28.921Z,100.00
2022-12-31T08:34:02.034Z,100.00
2022-12-31T08:36:54.440Z,100.00
2022-12-31T08:39:51.449Z,100.00
2022-12-31T08:42:26.044Z,100.00
2022-12-31T08:45:01.699Z,100.00
2022-12-31T08:47:48.590Z,100.00
2022-12-31T08:50:18.801Z,100.00
2022-12-31T08:52:45.784Z,100.00
2022-12-31T08:55:16.898Z,100.00
2022-12-31T08:58:13.863Z,100.00
2022-12-31T09:00:40.681Z,100.00
2022-12-31T09:03:19.379Z,100.00
2022-12-31T09:06:03.101Z,100.00
2022-12-31T09:09:09.856Z,100.00
2022-12-31T09:11:52.645Z,100.00
2022-12-31T09:14:25.058Z,100.00
2022-12-31T09:17:02.233Z,100.00
2022-12-31T09:19:28.908Z,100.00
2022-12-31T09:21:56.016Z,100.00
2022-12-31T09:24:22.547Z,100.00
2022-12-31T09:27:15.663Z,100.00
2022-12-31T09:29:44.874Z,100.00
2022-12-31T09:32:25.996Z,100.00
2022-12-31T09:34:54.688Z,100.00
2022-12-31T09:37:48.749Z,100.00
2022-12-31T09:40:40.103Z,100.00
2022-12-31T09:43:38.002Z,100.00
2022-12-31T09:46:32.991Z,100.00
2022-12-31T09:49:37.927Z,100.00
2022-12-31T09:52:44.990Z,100.00
2022-12-31T09:55:30.091Z,100.00
2022-12-31T09:58:24.670Z,100.00
2022-12-31T10:01:02.418Z,100.00
2022-12-31T10:03:58.201Z,100.00
2022-12-31T10:06:39.559Z,100.00
2022-12-31T10:09:37.140Z,100.00
2022-12-31T10:12:38.999Z,100.00
2022-12-31T10:15:33.385Z,100.00
2022-12-31T10:18:31.246Z,100.00
2022-12-31T10:21:19.304Z,100.00
2022-12-31T10:24:07.505Z,100.00
2022-12-31T10:27:18.578Z,100.00
2022-12-31T10:29:56.853Z,100.00
2022-12-31T10:32:42.395Z,100.00
2022-12-31T10:35:39.216Z,100.00
2022-12-31T10:38:22.278Z,100.00
2022-12-31T10:41:43.024Z,100.00
2022-12-31T10:44:30.809Z,100.00
2022-12-31T10:47:33.949Z,100.00
2022-12-31T10:50:38.833Z,100.00
2022-12-31T10:53:24.617Z,100.00
2022-12-31T10:56:14.780Z,100.00
2022-12-31T10:59:00.559Z,100.00
2022-12-31T11:01:52.628Z,100.00
2022-12-31T11:04:47.668Z,100.00
2022-12-31T11:07:47.464Z,100.00
2022-12-31T11:10:40.900Z,100.00
2022-12-31T11:13:19.357Z,100.00
2022-12-31T11:16:20.661Z,100.00
2022-12-31T11:19:02.130Z,100.00
2022-12-31T11:21:47.245Z,100.00
2022-12-31T11:24:32.754Z,100.00
2022-12-31T11:27:27.934Z,100.00
2022-12-31T11:30:27.560Z,100.00
2022-12-31T11:32:59.977Z,100.00
2022-12-31T11:35:57.026Z,100.00
2022-12-31T11:38:28.233Z,100.00
2022-12-31T11:41:06.595Z,100.00
2022-12-31T11:43:38.287Z,100.00
2022-12-31T11:46:34.310Z,100.00
2022-12-31T11:49:05.295Z,100.00
2022-12-31T11:51:50.673Z,100.00
2022-12-31T11:54:45.349Z,100.00
2022-12-31T11:57:33.716Z,100.00
2022-12-31T12:00:04.239Z,100.00
2022-12-31T12:02:36.329Z,100.00
2022-12-31T12:05:10.284Z,100.00
2022-12-31T12:07:37.541Z,100.00
2022-12-31T12:10:15.528Z,100.00
2022-12-31T12:12:42.708Z,100.00
2022-12-31T12:15:13.797Z,100.00
2022-12-31T12:17:40.999Z,100.00
2022-12-31T12:20:17.006Z,100.00
2022-12-31T12:22:51.608Z,100.00
2022-12-31T12:25:21.079Z,100.00
2022-12-31T12:27:47.912Z,100.00
2022-12-31T12:30:27.458Z,100.00
2022-12-31T12:32:57.641Z,100.00
2022-12-31T12:35:32.912Z,100.00
2022-12-31T12:38:07.739Z,100.00
2022-12-31T12:40:34.714Z,100.00
2022-12-31T12:43:02.256Z,100.00
2022-12-31T12:45:51.616Z,100.00
2022-12-31T12:48:42.026Z,100.00
2022-12-31T12:51:58.153Z,100.00
2022-12-31T12:54:43.081Z,100.00
2022-12-31T12:57:21.138Z,100.00
2022-12-31T13:00:07.630Z,100.00
2022-12-31T13:03:08.265Z,100.00
2022-12-31T13:05:51.196Z,100.00
2022-12-31T13:08:32.530Z,100.00
2022-12-31T13:11:28.161Z,100.00
2022-12-31T13:14:16.252Z,100.00
2022-12-31T13:16:51.486Z,100.00
2022-12-31T13:19:25.443Z,100.00
2022-12-31T13:22:10.813Z,100.00
2022-12-31T13:24:52.174Z,100.00
2022-12-31T13:27:32.419Z,100.00
2022-12-31T13:30:02.258Z,100.00
2022-12-31T13:32:45.719Z,100.00
2022-12-31T13:35:30.916Z,100.00
2022-12-31T13:38:05.834Z,100.00
2022-12-31T13:40:46.646Z,100.00
2022-12-31T13:43:19.845Z,100.00
2022-12-31T13:45:56.807Z,100.00
2022-12-31T13:48:32.430Z,100.00
2022-12-31T13:51:07.444Z,100.00
2022-12-31T13:53:40.243Z,100.00
2022-12-31T13:56:13.557Z,100.00
2022-12-31T13:58:44.721Z,100.00
2022-12-31T14:01:11.396Z,100.00
2022-12-31T14:04:11.268Z,100.00
2022-12-31T14:06:46.059Z,100.00
2022-12-31T14:09:21.752Z,100.00
2022-12-31T14:12:21.369Z,100.00
2022-12-31T14:15:03.323Z,100.00
2022-12-31T14:17:59.833Z,100.00
2022-12-31T14:20:29.327Z,100.00
2022-12-31T14:23:37.153Z,100.00
2022-12-31T14:26:09.064Z,100.00
2022-12-31T14:28:46.664Z,100.00
2022-12-31T14:31:27.619Z,100.00
2022-12-31T14:34:26.170Z,100.00
2022-12-31T14:37:13.724Z,100.00
2022-12-31T14:40:28.103Z,100.00
2022-12-31T14:43:39.361Z,100.00
2022-12-31T14:46:29.180Z,100.00
2022-12-31T14:49:26.043Z,100.00
2022-12-31T14:51:52.417Z,100.00
2022-12-31T14:54:29.063Z,100.00
2022-12-31T14:56:55.698Z,100.00
2022-12-31T14:59:26.363Z,100.00
2022-12-31T15:01:53.409Z,99.75
2022-12-31T15:04:42.085Z,100.00
2022-12-31T15:07:27.545Z,100.00
2022-12-31T15:10:08.055Z,100.00
2022-12-31T15:12:58.127Z,100.00
2022-12-31T15:15:46.165Z,100.00
2022-12-31T15:18:43.565Z,100.00
2022-12-31T15:21:33.882Z,100.00
2022-12-31T15:24:00.516Z,100.00
2022-12-31T15:26:30.855Z,100.00
2022-12-31T15:28:59.445Z,100.00
2022-12-31T15:31:26.268Z,100.00
2022-12-31T15:33:59.849Z,100.00
2022-12-31T15:36:35.458Z,100.00
2022-12-31T15:39:10.891Z,100.00
2022-12-31T15:42:02.961Z,100.00
2022-12-31T15:44:31.503Z,100.00
2022-12-31T15:47:02.506Z,100.00
2022-12-31T15:49:36.404Z,100.00
2022-12-31T15:52:08.415Z,100.00
2022-12-31T15:54:41.273Z,100.00
2022-12-31T15:57:15.849Z,100.00
2022-12-31T15:59:42.268Z,100.00
2022-12-31T16:02:35.087Z,100.00
2022-12-31T16:05:01.627Z,100.00
2022-12-31T16:07:28.754Z,100.00
2022-12-31T16:09:58.105Z,100.00
2022-12-31T16:12:32.714Z,100.00
2022-12-31T16:15:00.960Z,100.00
2022-12-31T16:17:35.666Z,100.00
2022-12-31T16:20:23.636Z,100.00
2022-12-31T16:22:52.975Z,100.00
2022-12-31T16:25:30.770Z,100.00
2022-12-31T16:27:57.919Z,100.00
2022-12-31T16:30:28.233Z,100.00
2022-12-31T16:32:58.938Z,100.00
2022-12-31T16:35:31.007Z,100.00
2022-12-31T16:38:08.844Z,100.00
2022-12-31T16:40:35.386Z,100.00
2022-12-31T16:43:01.816Z,100.00
2022-12-31T16:45:32.153Z,100.00
2022-12-31T16:48:16.544Z,100.00
2022-12-31T16:50:45.434Z,100.00
2022-12-31T16:53:13.736Z,100.00
2022-12-31T16:55:40.156Z,100.00
2022-12-31T16:58:35.822Z,100.00
2022-12-31T17:01:17.128Z,100.00
2022-12-31T17:03:51.472Z,100.00
2022-12-31T17:06:19.902Z,100.00
2022-12-31T17:08:49.484Z,100.00
2022-12-31T17:11:30.815Z,100.00
2022-12-31T17:14:06.686Z,100.00
2022-12-31T17:16:34.455Z,100.00
2022-12-31T17:19:01.101Z,100.00
2022-12-31T17:21:29.370Z,100.00
2022-12-31T17:24:01.060Z,100.00
2022-12-31T17:26:29.598Z,100.00
2022-12-31T17:28:57.098Z,100.00
2022-12-31T17:31:37.213Z,100.00
2022-12-31T17:34:12.749Z,100.00
2022-12-31T17:36:54.517Z,99.56
2022-12-31T17:39:22.549Z,98.95
2022-12-31T17:41:51.739Z,98.35
2022-12-31T17:44:23.809Z,98.26
2022-12-31T17:46:50.408Z,97.71
2022-12-31T17:49:17.184Z,97.62
2022-12-31T17:51:47.519Z,97.03
2022-12-31T17:54:15.204Z,96.02
2022-12-31T17:56:42.187Z,94.30
2022-12-31T17:59:08.624Z,93.92
2022-12-31T18:01:35.476Z,93.29
2022-12-31T18:04:02.713Z,93.31
2022-12-31T18:06:29.085Z,92.47
2022-12-31T18:08:55.494Z,92.55
2022-12-31T18:11:23.576Z,92.59
2022-12-31T18:13:50.346Z,91.30
2022-12-31T18:16:17.231Z,90.55
2022-12-31T18:18:45.171Z,90.59
2022-12-31T18:21:32.775Z,90.63
2022-12-31T18:26:26.505Z,89.73
2022-12-31T18:28:53.089Z,89.25
2022-12-31T18:31:24.512Z,89.15
2022-12-31T18:33:52.513Z,88.61
2022-12-31T18:36:20.512Z,87.74
2022-12-31T18:38:46.897Z,86.87
2022-12-31T18:41:21.608Z,85.77
2022-12-31T18:43:48.332Z,85.98
2022-12-31T18:46:17.203Z,85.42
2022-12-31T18:48:44.190Z,85.73
2022-12-31T18:51:15.454Z,85.22
2022-12-31T18:53:41.953Z,85.86
2022-12-31T18:56:13.652Z,86.17
2022-12-31T18:58:40.547Z,84.99
2022-12-31T19:01:24.810Z,83.59
2022-12-31T19:03:51.269Z,82.39
2022-12-31T19:06:17.631Z,81.63
2022-12-31T19:08:43.962Z,80.46
2022-12-31T19:11:13.767Z,79.81
2022-12-31T19:13:40.145Z,79.63
2022-12-31T19:16:07.696Z,79.21
2022-12-31T19:18:34.283Z,78.75
2022-12-31T19:21:01.395Z,78.59
2022-12-31T19:23:27.812Z,78.74
2022-12-31T19:25:54.322Z,77.94
2022-12-31T19:28:25.693Z,77.32
2022-12-31T19:30:52.584Z,76.47
2022-12-31T19:33:19.260Z,75.90
2022-12-31T19:35:46.022Z,75.08
2022-12-31T19:38:21.130Z,75.09
2022-12-31T19:40:48.098Z,74.64
2022-12-31T19:43:15.767Z,74.25
2022-12-31T19:45:43.222Z,73.93
2022-12-31T19:48:18.555Z,74.12
2022-12-31T19:50:47.626Z,73.46
2022-12-31T19:53:16.578Z,72.44
2022-12-31T19:55:43.169Z,72.40
2022-12-31T19:58:15.266Z,72.39
2022-12-31T20:00:41.555Z,72.29
2022-12-31T20:03:10.250Z,72.07
2022-12-31T20:05:36.727Z,71.47
2022-12-31T20:08:03.091Z,70.78
2022-12-31T20:10:29.469Z,70.47
2022-12-31T20:12:55.980Z,70.03
2022-12-31T20:15:22.372Z,70.09
2022-12-31T20:17:49.187Z,69.98
2022-12-31T20:20:15.648Z,69.30
2022-12-31T20:22:42.021Z,68.38
2022-12-31T20:25:08.992Z,68.55
2022-12-31T20:27:35.631Z,68.21
2022-12-31T20:30:02.161Z,68.11
2022-12-31T20:32:29.577Z,67.78
2022-12-31T20:34:55.987Z,67.93
2022-12-31T20:37:22.354Z,68.38
2022-12-31T20:39:48.704Z,67.97
2022-12-31T20:42:15.078Z,67.52
2022-12-31T20:44:41.439Z,66.94
2022-12-31T20:47:07.832Z,67.31
2022-12-31T20:50:09.168Z,66.92
2022-12-31T20:52:20.520Z,66.25
2022-12-31T20:54:46.882Z,65.92
2022-12-31T20:57:13.251Z,65.78
2022-12-31T20:59:39.618Z,65.33
2022-12-31T21:02:21.115Z,65.23
2022-12-31T21:04:48.140Z,65.13
2022-12-31T21:07:14.578Z,64.75
2022-12-31T21:09:40.961Z,64.98
2022-12-31T21:12:27.827Z,64.89
2022-12-31T21:14:54.194Z,64.82
2022-12-31T21:17:20.575Z,64.78
2022-12-31T21:19:47.266Z,64.88
2022-12-31T21:22:13.714Z,65.04
2022-12-31T21:24:40.183Z,65.04
2022-12-31T21:27:06.982Z,64.95
2022-12-31T21:29:34.970Z,64.92
2022-12-31T21:32:03.774Z,64.10
2022-12-31T21:34:30.179Z,63.32
2022-12-31T21:36:56.563Z,63.60
2022-12-31T21:39:22.921Z,63.57
2022-12-31T21:41:52.227Z,63.78
2022-12-31T21:44:28.456Z,63.46
2022-12-31T21:47:34.998Z,63.59
2022-12-31T21:50:03.751Z,62.90
2022-12-31T21:52:34.942Z,63.33
2022-12-31T21:55:22.008Z,62.49
2022-12-31T22:00:55.005Z,62.75
2022-12-31T22:03:24.375Z,62.36
2022-12-31T22:06:20.481Z,63.03
2022-12-31T22:08:49.091Z,62.49
2022-12-31T22:11:16.237Z,62.28
2022-12-31T22:13:43.006Z,62.43
2022-12-31T22:16:09.570Z,61.96
2022-12-31T22:18:39.029Z,61.97
2022-12-31T22:21:17.420Z,62.43
2022-12-31T22:23:45.981Z,62.86
2022-12-31T22:26:14.033Z,62.61
2022-12-31T22:28:41.428Z,63.27
2022-12-31T22:31:18.799Z,63.76
2022-12-31T22:33:45.366Z,63.97
2022-12-31T22:36:14.469Z,63.89
2022-12-31T22:38:40.875Z,63.47
2022-12-31T22:41:12.314Z,63.22
2022-12-31T22:43:41.021Z,62.90
2022-12-31T22:46:09.071Z,62.95
2022-12-31T22:48:35.784Z,63.19
2022-12-31T22:51:02.181Z,62.69
2022-12-31T22:53:28.586Z,63.01
2022-12-31T22:55:55.523Z,63.26
2022-12-31T22:58:23.097Z,62.84
2022-12-31T23:00:49.581Z,62.71
2022-12-31T23:03:16.185Z,62.68
2022-12-31T23:05:42.842Z,62.53
2022-12-31T23:08:18.714Z,62.41
2022-12-31T23:11:05.611Z,62.69
2022-12-31T23:13:56.470Z,62.81
2022-12-31T23:16:42.604Z,63.17
2022-12-31T23:19:27.777Z,63.50
2022-12-31T23:22:12.892Z,63.16
2022-12-31T23:24:39.601Z,62.69
2022-12-31T23:27:06.288Z,62.74
2022-12-31T23:29:33.233Z,62.24
2022-12-31T23:31:59.874Z,62.79
2022-12-31T23:34:26.268Z,62.53
2022-12-31T23:36:52.638Z,62.57
2022-12-31T23:39:19.145Z,62.64
2022-12-31T23:41:45.496Z,62.61
2022-12-31T23:44:12.217Z,62.86
2022-12-31T23:46:39.339Z,62.61
2022-12-31T23:49:05.973Z,62.94
2022-12-31T23:51:32.811Z,63.54
2022-12-31T23:53:59.167Z,63.11
2022-12-31T23:56:25.530Z,62.87
2022-12-31T23:58:55.797Z,62.62
